createdAt,value
2023-04-14T00:01:37.133Z,100222.91
2023-04-14T00:04:03.962Z,100220.06
2023-04-14T00:06:31.306Z,100225.09
2023-04-14T00:08:58.124Z,100218.25
2023-04-14T00:11:24.856Z,100223.38
2023-04-14T00:13:51.581Z,100220.47
2023-04-14T00:16:18.112Z,100225.13
2023-04-14T00:18:44.770Z,100219.94
2023-04-14T00:21:11.228Z,100220.25
2023-04-14T00:23:37.829Z,100225.38
2023-04-14T00:26:04.981Z,100234.09
2023-04-14T00:28:31.430Z,100231.66
2023-04-14T00:30:57.832Z,100237.22
2023-04-14T00:33:24.263Z,100236.78
2023-04-14T00:35:50.933Z,100233.09
2023-04-14T00:38:17.370Z,100237.38
2023-04-14T00:40:43.827Z,100247.25
2023-04-14T00:43:10.504Z,100255.47
2023-04-14T00:45:44.700Z,100249.38
2023-04-14T00:48:12.381Z,100250.97
2023-04-14T00:50:39.278Z,100248.56
2023-04-14T00:53:05.933Z,100251.34
2023-04-14T00:55:33.408Z,100239.41
2023-04-14T00:58:01.147Z,100249.38
2023-04-14T01:00:28.410Z,100242.63
2023-04-14T01:02:55.159Z,100254.69
2023-04-14T01:05:21.726Z,100257.47
2023-04-14T01:07:49.603Z,100250.28
2023-04-14T01:10:16.791Z,100261.03
2023-04-14T01:12:46.355Z,100260.59
2023-04-14T01:15:34.194Z,100254.56
2023-04-14T01:18:15.206Z,100254.69
2023-04-14T01:20:44.429Z,100256.75
2023-04-14T01:23:21.613Z,100266.28
2023-04-14T01:26:09.733Z,100265.09
2023-04-14T01:28:55.592Z,100259.53
2023-04-14T01:31:37.266Z,100266.03
2023-04-14T01:34:14.544Z,100261.53
2023-04-14T01:36:51.034Z,100267.09
2023-04-14T01:39:21.055Z,100267.09
2023-04-14T01:41:52.555Z,100265.81
2023-04-14T01:44:22.581Z,100261.41
2023-04-14T01:46:56.636Z,100259.00
2023-04-14T01:49:24.323Z,100261.78
2023-04-14T01:51:52.813Z,100261.78
2023-04-14T01:54:20.790Z,100263.72
2023-04-14T01:56:52.268Z,100267.78
2023-04-14T01:59:21.009Z,100271.25
2023-04-14T02:01:50.845Z,100269.19
2023-04-14T02:04:22.393Z,100267.59
2023-04-14T02:06:51.762Z,100270.69
2023-04-14T02:09:20.716Z,100264.69
2023-04-14T02:11:50.347Z,100265.03
2023-04-14T02:14:19.108Z,100263.06
2023-04-14T02:16:48.641Z,100265.84
2023-04-14T02:19:19.650Z,100264.69
2023-04-14T02:21:49.952Z,100263.53
2023-04-14T02:24:16.899Z,100272.66
2023-04-14T02:26:56.151Z,100271.41
2023-04-14T02:29:24.865Z,100270.25
2023-04-14T02:32:06.432Z,100272.91
2023-04-14T02:34:47.929Z,100276.88
2023-04-14T02:37:22.252Z,100272.91
2023-04-14T02:39:56.844Z,100279.66
2023-04-14T02:42:26.972Z,100275.25
2023-04-14T02:45:02.828Z,100272.00
2023-04-14T02:47:34.106Z,100276.75
2023-04-14T02:50:03.016Z,100265.63
2023-04-14T02:52:31.931Z,100270.75
2023-04-14T02:55:00.014Z,100281.06
2023-04-14T02:57:27.940Z,100282.19
2023-04-14T02:59:57.422Z,100285.34
2023-04-14T03:02:25.222Z,100286.88
2023-04-14T03:04:53.404Z,100282.44
2023-04-14T03:07:21.950Z,100292.31
2023-04-14T03:09:51.751Z,100297.88
2023-04-14T03:12:21.991Z,100297.06
2023-04-14T03:14:49.415Z,100299.84
2023-04-14T03:17:18.183Z,100297.75
2023-04-14T03:19:48.410Z,100301.22
2023-04-14T03:22:17.301Z,100295.22
2023-04-14T03:24:44.684Z,100297.53
2023-04-14T03:27:15.469Z,100304.16
2023-04-14T03:29:48.152Z,100307.63
2023-04-14T03:32:17.565Z,100309.59
2023-04-14T03:34:48.349Z,100305.53
2023-04-14T03:37:17.937Z,100305.53
2023-04-14T03:39:47.400Z,100313.06
2023-04-14T03:42:14.320Z,100309.84
2023-04-14T03:44:46.875Z,100313.28
2023-04-14T03:47:14.804Z,100312.13
2023-04-14T03:49:47.009Z,100315.25
2023-04-14T03:52:16.110Z,100311.69
2023-04-14T03:54:44.746Z,100320.38
2023-04-14T03:57:13.525Z,100321.88
2023-04-14T03:59:41.412Z,100320.25
2023-04-14T04:02:12.025Z,100322.56
2023-04-14T04:04:40.668Z,100319.31
2023-04-14T04:07:10.661Z,100321.28
2023-04-14T04:09:39.073Z,100319.69
2023-04-14T04:12:07.669Z,100325.22
2023-04-14T04:14:38.508Z,100326.41
2023-04-14T04:17:07.831Z,100329.50
2023-04-14T04:19:36.316Z,100321.66
2023-04-14T04:22:03.930Z,100328.81
2023-04-14T04:24:36.913Z,100322.09
2023-04-14T04:27:04.470Z,100330.78
2023-04-14T04:29:33.310Z,100321.97
2023-04-14T04:32:00.940Z,100324.31
2023-04-14T04:34:31.915Z,100319.09
2023-04-14T04:37:01.457Z,100317.00
2023-04-14T04:39:29.812Z,100327.31
2023-04-14T04:42:06.567Z,100327.19
2023-04-14T04:44:33.888Z,100335.16
2023-04-14T04:47:01.139Z,100314.47
2023-04-14T04:49:28.303Z,100325.56
2023-04-14T04:51:56.482Z,100323.16
2023-04-14T04:54:23.120Z,100328.69
2023-04-14T04:56:50.200Z,100325.13
2023-04-14T04:59:16.586Z,100324.63
2023-04-14T05:01:44.230Z,100327.41
2023-04-14T05:04:11.130Z,100328.06
2023-04-14T05:06:38.470Z,100332.00
2023-04-14T05:09:05.007Z,100323.66
2023-04-14T05:11:32.451Z,100324.84
2023-04-14T05:13:58.793Z,100325.63
2023-04-14T05:16:26.177Z,100325.28
2023-04-14T05:18:52.544Z,100330.03
2023-04-14T05:21:19.639Z,100329.72
2023-04-14T05:23:47.187Z,100330.19
2023-04-14T05:26:38.910Z,100333.78
2023-04-14T05:29:03.144Z,100334.72
2023-04-14T05:31:29.899Z,100331.25
2023-04-14T05:33:56.400Z,100336.09
2023-04-14T05:36:22.747Z,100333.00
2023-04-14T05:38:51.386Z,100332.28
2023-04-14T05:41:17.772Z,100334.38
2023-04-14T05:43:44.099Z,100334.50
2023-04-14T05:46:10.468Z,100337.38
2023-04-14T05:48:38.100Z,100330.44
2023-04-14T05:51:04.544Z,100329.03
2023-04-14T05:53:30.881Z,100331.22
2023-04-14T05:55:57.252Z,100327.06
2023-04-14T05:58:24.827Z,100326.13
2023-04-14T06:01:01.538Z,100332.72
2023-04-14T06:03:28.188Z,100337.81
2023-04-14T06:05:55.172Z,100343.13
2023-04-14T06:08:22.673Z,100340.53
2023-04-14T06:10:50.532Z,100344.34
2023-04-14T06:13:18.614Z,100342.94
2023-04-14T06:15:45.269Z,100357.06
2023-04-14T06:18:11.661Z,100350.47
2023-04-14T06:20:38.029Z,100355.78
2023-04-14T06:23:08.508Z,100355.53
2023-04-14T06:25:35.169Z,100354.91
2023-04-14T06:28:04.010Z,100353.84
2023-04-14T06:30:32.247Z,100353.28
2023-04-14T06:32:59.492Z,100356.63
2023-04-14T06:35:33.001Z,100356.44
2023-04-14T06:38:01.399Z,100359.31
2023-04-14T06:40:32.709Z,100359.44
2023-04-14T06:42:59.087Z,100356.81
2023-04-14T06:45:32.662Z,100352.91
2023-04-14T06:47:59.041Z,100348.22
2023-04-14T06:50:25.878Z,100347.13
2023-04-14T06:52:52.211Z,100337.28
2023-04-14T06:55:21.827Z,100335.72
2023-04-14T06:57:50.185Z,100333.03
2023-04-14T07:00:19.750Z,100334.75
2023-04-14T07:02:46.165Z,100333.31
2023-04-14T07:05:12.663Z,100327.47
2023-04-14T07:07:45.326Z,100324.06
2023-04-14T07:10:12.569Z,100330.19
2023-04-14T07:12:39.016Z,100327.56
2023-04-14T07:15:06.006Z,100316.97
2023-04-14T07:17:32.694Z,100322.31
2023-04-14T07:19:59.427Z,100324.50
2023-04-14T07:22:26.130Z,100318.72
2023-04-14T07:24:53.677Z,100311.31
2023-04-14T07:27:20.228Z,100316.34
2023-04-14T07:29:47.400Z,100322.19
2023-04-14T07:32:14.097Z,100327.53
2023-04-14T07:34:43.578Z,100327.78
2023-04-14T07:37:11.663Z,100324.84
2023-04-14T07:39:40.092Z,100317.47
2023-04-14T07:42:06.630Z,100323.34
2023-04-14T07:44:35.868Z,100316.44
2023-04-14T07:47:03.422Z,100321.56
2023-04-14T07:49:30.087Z,100320.66
2023-04-14T07:51:56.818Z,100317.00
2023-04-14T07:54:23.822Z,100320.06
2023-04-14T07:56:51.266Z,100318.38
2023-04-14T07:59:17.637Z,100328.25
2023-04-14T08:01:46.408Z,100327.31
2023-04-14T08:04:13.569Z,100324.41
2023-04-14T08:06:40.271Z,100329.06
2023-04-14T08:09:09.801Z,100326.16
2023-04-14T08:11:36.226Z,100330.84
2023-04-14T08:14:04.420Z,100327.13
2023-04-14T08:16:30.922Z,100323.34
2023-04-14T08:18:58.206Z,100321.94
2023-04-14T08:21:24.650Z,100314.06
2023-04-14T08:23:54.747Z,100318.22
2023-04-14T08:26:21.320Z,100312.31
2023-04-14T08:28:47.709Z,100320.41
2023-04-14T08:31:14.431Z,100322.84
2023-04-14T08:33:41.028Z,100314.84
2023-04-14T08:36:07.646Z,100319.66
2023-04-14T08:38:36.860Z,100315.66
2023-04-14T08:41:06.864Z,100313.63
2023-04-14T08:43:33.901Z,100316.47
2023-04-14T08:46:01.973Z,100316.06
2023-04-14T08:48:32.067Z,100316.88
2023-04-14T08:51:31.935Z,100316.06
2023-04-14T08:54:01.052Z,100312.47
2023-04-14T08:56:34.962Z,100311.63
2023-04-14T08:59:08.105Z,100314.84
2023-04-14T09:01:38.088Z,100306.00
2023-04-14T09:04:06.599Z,100308.44
2023-04-14T09:06:38.695Z,100304.44
2023-04-14T09:09:07.756Z,100305.22
2023-04-14T09:11:34.540Z,100305.63
2023-04-14T09:14:02.243Z,100303.66
2023-04-14T09:16:29.569Z,100297.19
2023-04-14T09:18:57.519Z,100292.38
2023-04-14T09:21:53.589Z,100293.19
2023-04-14T09:24:24.935Z,100292.78
2023-04-14T09:26:52.159Z,100295.59
2023-04-14T09:29:18.724Z,100292.78
2023-04-14T09:31:46.060Z,100288.34
2023-04-14T09:34:18.140Z,100292.78
2023-04-14T09:37:05.555Z,100291.16
2023-04-14T09:39:36.640Z,100280.34
2023-04-14T09:42:04.822Z,100277.09
2023-04-14T09:44:31.231Z,100276.31
2023-04-14T09:47:02.909Z,100271.06
2023-04-14T09:49:30.105Z,100273.09
2023-04-14T09:52:08.293Z,100276.28
2023-04-14T09:54:35.639Z,100268.25
2023-04-14T09:57:02.517Z,100267.88
2023-04-14T09:59:37.046Z,100264.63
2023-04-14T10:02:06.456Z,100260.25
2023-04-14T10:04:33.575Z,100261.06
2023-04-14T10:07:00.428Z,100260.25
2023-04-14T10:09:29.882Z,100255.84
2023-04-14T10:12:16.227Z,100259.84
2023-04-14T10:14:43.888Z,100262.28
2023-04-14T10:17:10.724Z,100266.31
2023-04-14T10:19:38.983Z,100257.88
2023-04-14T10:22:06.136Z,100254.66
2023-04-14T10:24:32.899Z,100250.66
2023-04-14T10:27:02.829Z,100250.66
2023-04-14T10:29:30.947Z,100251.06
2023-04-14T10:32:06.053Z,100252.66
2023-04-14T10:34:33.640Z,100251.88
2023-04-14T10:37:15.639Z,100242.63
2023-04-14T10:39:43.564Z,100249.91
2023-04-14T10:42:10.233Z,100245.06
2023-04-14T10:44:36.903Z,100238.66
2023-04-14T10:47:06.104Z,100238.66
2023-04-14T10:49:34.633Z,100240.66
2023-04-14T10:52:25.157Z,100220.97
2023-04-14T10:54:53.295Z,100218.13
2023-04-14T10:57:27.081Z,100222.16
2023-04-14T10:59:55.582Z,100220.56
2023-04-14T11:02:54.404Z,100211.31
2023-04-14T11:05:21.484Z,100208.91
2023-04-14T11:07:51.777Z,100203.66
2023-04-14T11:10:27.080Z,100207.69
2023-04-14T11:13:26.367Z,100202.88
2023-04-14T11:16:09.192Z,100205.69
2023-04-14T11:18:45.637Z,100198.03
2023-04-14T11:21:15.764Z,100197.66
2023-04-14T11:23:44.996Z,100189.59
2023-04-14T11:26:14.475Z,100182.75
2023-04-14T11:28:43.446Z,100175.16
2023-04-14T11:31:12.024Z,100176.75
2023-04-14T11:33:39.692Z,100175.53
2023-04-14T11:36:07.496Z,100177.53
2023-04-14T11:38:40.902Z,100175.13
2023-04-14T11:41:10.681Z,100179.53
2023-04-14T11:43:37.938Z,100172.69
2023-04-14T11:46:05.984Z,100177.09
2023-04-14T11:48:32.437Z,100165.84
2023-04-14T11:51:03.256Z,100167.88
2023-04-14T11:53:30.398Z,100155.38
2023-04-14T11:56:00.712Z,100154.56
2023-04-14T11:58:28.648Z,100167.41
2023-04-14T12:00:57.789Z,100156.94
2023-04-14T12:03:29.278Z,100159.34
2023-04-14T12:06:01.277Z,100154.50
2023-04-14T12:08:30.299Z,100150.88
2023-04-14T12:10:57.564Z,100152.88
2023-04-14T12:13:24.800Z,100153.66
2023-04-14T12:15:52.746Z,100146.03
2023-04-14T12:20:56.217Z,100148.03
2023-04-14T12:23:23.479Z,100143.56
2023-04-14T12:25:50.570Z,100146.78
2023-04-14T12:28:29.997Z,100140.75
2023-04-14T12:30:59.740Z,100139.53
2023-04-14T12:33:28.068Z,100131.47
2023-04-14T12:36:15.474Z,100134.28
2023-04-14T12:38:42.904Z,100145.53
2023-04-14T12:41:10.654Z,100138.25
2023-04-14T12:43:38.486Z,100131.00
2023-04-14T12:46:07.841Z,100127.34
2023-04-14T12:48:44.328Z,100120.09
2023-04-14T12:51:17.431Z,100126.09
2023-04-14T12:53:46.418Z,100123.25
2023-04-14T12:56:19.767Z,100124.84
2023-04-14T12:58:47.360Z,100122.81
2023-04-14T13:01:19.018Z,100117.19
2023-04-14T13:03:54.311Z,100116.38
2023-04-14T13:06:23.159Z,100110.69
2023-04-14T13:08:54.009Z,100117.09
2023-04-14T13:11:22.170Z,100112.66
2023-04-14T13:13:50.041Z,100112.25
2023-04-14T13:16:18.473Z,100106.97
2023-04-14T13:18:47.311Z,100095.31
2023-04-14T13:21:14.480Z,100103.75
2023-04-14T13:23:41.343Z,100094.50
2023-04-14T13:26:07.818Z,100092.09
2023-04-14T13:28:34.304Z,100096.13
2023-04-14T13:31:01.181Z,100094.53
2023-04-14T13:33:27.822Z,100085.31
2023-04-14T13:35:55.621Z,100086.16
2023-04-14T13:38:22.547Z,100085.75
2023-04-14T13:40:49.298Z,100078.94
2023-04-14T13:43:18.437Z,100074.13
2023-04-14T13:45:45.260Z,100071.72
2023-04-14T13:48:11.681Z,100069.31
2023-04-14T13:50:38.070Z,100069.31
2023-04-14T13:53:04.430Z,100066.09
2023-04-14T13:55:31.049Z,100058.44
2023-04-14T13:57:57.352Z,100071.31
2023-04-14T14:00:23.880Z,100065.66
2023-04-14T14:02:52.064Z,100062.44
2023-04-14T14:05:18.712Z,100066.03
2023-04-14T14:07:45.274Z,100067.66
2023-04-14T14:10:12.024Z,100066.44
2023-04-14T14:12:38.360Z,100070.06
2023-04-14T14:15:05.736Z,100057.56
2023-04-14T14:17:32.285Z,100050.72
2023-04-14T14:19:59.215Z,100063.19
2023-04-14T14:22:32.345Z,100056.31
2023-04-14T14:25:10.673Z,100060.34
2023-04-14T14:27:37.808Z,100050.25
2023-04-14T14:30:04.535Z,100055.50
2023-04-14T14:32:31.130Z,100037.75
2023-04-14T14:34:58.881Z,100046.59
2023-04-14T14:37:25.230Z,100047.41
2023-04-14T14:39:51.969Z,100044.59
2023-04-14T14:42:18.606Z,100042.56
2023-04-14T14:44:45.034Z,100035.34
2023-04-14T14:47:11.525Z,100043.00
2023-04-14T14:49:43.362Z,100041.78
2023-04-14T14:52:15.838Z,100038.97
2023-04-14T14:54:42.121Z,100038.97
2023-04-14T14:57:08.465Z,100036.16
2023-04-14T14:59:34.883Z,100033.34
2023-04-14T15:02:01.649Z,100033.72
2023-04-14T15:04:28.058Z,100028.91
2023-04-14T15:06:54.637Z,100032.09
2023-04-14T15:09:21.249Z,100035.31
2023-04-14T15:11:47.651Z,100038.50
2023-04-14T15:14:14.243Z,100038.06
2023-04-14T15:16:40.622Z,100032.44
2023-04-14T15:19:07.280Z,100031.63
2023-04-14T15:21:34.219Z,100032.44
2023-04-14T15:24:01.924Z,100021.59
2023-04-14T15:26:28.782Z,100027.22
2023-04-14T15:28:55.796Z,100025.63
2023-04-14T15:31:22.150Z,100028.84
2023-04-14T15:33:48.600Z,100030.50
2023-04-14T15:36:14.939Z,100028.50
2023-04-14T15:38:41.489Z,100034.56
2023-04-14T15:41:08.146Z,100030.16
2023-04-14T15:43:34.701Z,100028.94
2023-04-14T15:46:01.202Z,100030.97
2023-04-14T15:48:29.594Z,100032.19
2023-04-14T15:50:56.187Z,100024.53
2023-04-14T15:53:22.652Z,100017.72
2023-04-14T15:55:49.953Z,100024.16
2023-04-14T15:58:16.329Z,100020.13
2023-04-14T16:00:42.916Z,100027.00
2023-04-14T16:03:09.507Z,100018.53
2023-04-14T16:05:36.135Z,100020.97
2023-04-14T16:08:02.504Z,100018.56
2023-04-14T16:10:29.207Z,100018.19
2023-04-14T16:12:55.629Z,100020.22
2023-04-14T16:15:22.984Z,100010.97
2023-04-14T16:17:49.674Z,100012.16
2023-04-14T16:20:18.221Z,100014.97
2023-04-14T16:22:44.652Z,100015.38
2023-04-14T16:25:11.213Z,100017.41
2023-04-14T16:27:38.591Z,100025.84
2023-04-14T16:30:05.913Z,100022.22
2023-04-14T16:32:32.332Z,100024.63
2023-04-14T16:34:58.742Z,100028.25
2023-04-14T16:37:26.292Z,100024.19
2023-04-14T16:39:56.429Z,100026.22
2023-04-14T16:42:24.506Z,100025.41
2023-04-14T16:44:54.608Z,100036.25
2023-04-14T16:47:21.686Z,100029.38
2023-04-14T16:49:50.300Z,100038.25
2023-04-14T16:52:16.560Z,100035.81
2023-04-14T16:54:43.790Z,100041.00
2023-04-14T16:57:10.659Z,100063.16
2023-04-14T16:59:37.203Z,100062.38
2023-04-14T17:02:03.713Z,100069.63
2023-04-14T17:04:30.337Z,100083.72
2023-04-14T17:06:57.136Z,100070.09
2023-04-14T17:09:23.719Z,100072.56
2023-04-14T17:11:50.081Z,100073.88
2023-04-14T17:14:16.851Z,100063.06
2023-04-14T17:16:43.263Z,100073.19
2023-04-14T17:19:09.904Z,100074.47
2023-04-14T17:21:38.540Z,100073.72
2023-04-14T17:26:31.566Z,100069.44
2023-04-14T17:28:57.970Z,100062.63
2023-04-14T17:31:24.447Z,100059.84
2023-04-14T17:33:51.371Z,100053.44
2023-04-14T17:36:18.348Z,100065.47
2023-04-14T17:38:45.748Z,100069.09
2023-04-14T17:41:12.985Z,100062.66
2023-04-14T17:43:41.154Z,100053.84
2023-04-14T17:46:10.831Z,100058.25
2023-04-14T17:48:37.505Z,100059.84
2023-04-14T17:51:04.836Z,100054.66
2023-04-14T17:53:31.357Z,100049.03
2023-04-14T17:55:57.953Z,100056.25
2023-04-14T17:58:25.315Z,100059.84
2023-04-14T18:00:52.046Z,100065.09
2023-04-14T18:03:18.703Z,100064.28
2023-04-14T18:05:45.382Z,100064.72
2023-04-14T18:08:12.078Z,100068.31
2023-04-14T18:10:39.178Z,100073.94
2023-04-14T18:13:05.623Z,100072.75
2023-04-14T18:15:32.408Z,100074.75
2023-04-14T18:17:58.810Z,100081.97
2023-04-14T18:20:26.594Z,100084.38
2023-04-14T18:22:57.580Z,100085.19
2023-04-14T18:25:23.954Z,100084.38
2023-04-14T18:30:20.236Z,100088.41
2023-04-14T18:32:46.674Z,100086.00
2023-04-14T18:35:13.474Z,100083.19
2023-04-14T18:37:39.839Z,100080.78
2023-04-14T18:40:07.046Z,100086.38
2023-04-14T18:42:36.040Z,100096.81
2023-04-14T18:45:03.743Z,100101.25
2023-04-14T18:47:30.342Z,100104.03
2023-04-14T18:49:56.842Z,100099.22
2023-04-14T18:52:23.153Z,100108.44
2023-04-14T18:54:49.626Z,100110.03
2023-04-14T18:57:16.297Z,100104.41
2023-04-14T18:59:42.868Z,100103.22
2023-04-14T19:02:13.209Z,100113.19
2023-04-14T19:04:40.976Z,100119.63
2023-04-14T19:07:08.099Z,100115.59
2023-04-14T19:09:36.080Z,100119.22
2023-04-14T19:12:02.804Z,100117.97
2023-04-14T19:14:29.661Z,100117.59
2023-04-14T19:16:56.318Z,100117.56
2023-04-14T19:19:22.696Z,100115.53
2023-04-14T19:21:49.017Z,100116.75
2023-04-14T19:24:15.426Z,100114.34
2023-04-14T19:26:41.782Z,100122.34
2023-04-14T19:29:08.415Z,100125.13
2023-04-14T19:31:35.039Z,100126.34
2023-04-14T19:34:01.497Z,100131.53
2023-04-14T19:36:29.094Z,100121.50
2023-04-14T19:38:56.114Z,100129.13
2023-04-14T19:41:22.492Z,100121.13
2023-04-14T19:43:48.977Z,100123.91
2023-04-14T19:46:16.840Z,100117.88
2023-04-14T19:48:44.529Z,100118.28
2023-04-14T19:51:11.345Z,100125.50
2023-04-14T19:53:37.733Z,100120.28
2023-04-14T19:56:05.659Z,100127.88
2023-04-14T19:58:32.837Z,100123.06
2023-04-14T20:01:01.185Z,100124.66
2023-04-14T20:03:28.199Z,100123.44
2023-04-14T20:05:56.602Z,100111.00
2023-04-14T20:08:25.078Z,100128.22
2023-04-14T20:10:53.216Z,100123.41
2023-04-14T20:13:21.311Z,100127.81
2023-04-14T20:15:49.374Z,100130.59
2023-04-14T20:18:17.738Z,100133.38
2023-04-14T20:20:45.106Z,100136.56
2023-04-14T20:23:11.548Z,100138.53
2023-04-14T20:25:38.818Z,100131.28
2023-04-14T20:28:07.376Z,100137.66
2023-04-14T20:30:33.971Z,100133.25
2023-04-14T20:33:04.347Z,100141.28
2023-04-14T20:35:31.069Z,100134.03
2023-04-14T20:37:57.433Z,100137.97
2023-04-14T20:40:24.093Z,100134.78
2023-04-14T20:42:50.726Z,100141.16
2023-04-14T20:45:17.451Z,100143.94
2023-04-14T20:47:43.889Z,100143.50
2023-04-14T20:50:10.500Z,100142.31
2023-04-14T20:52:37.134Z,100142.69
2023-04-14T20:55:03.857Z,100144.69
2023-04-14T20:57:30.245Z,100143.06
2023-04-14T20:59:56.680Z,100137.88
2023-04-14T21:02:23.283Z,100141.03
2023-04-14T21:04:50.149Z,100145.47
2023-04-14T21:07:17.075Z,100144.25
2023-04-14T21:09:43.702Z,100145.84
2023-04-14T21:12:14.349Z,100150.66
2023-04-14T21:15:30.902Z,100150.25
2023-04-14T21:17:29.213Z,100146.66
2023-04-14T21:19:55.999Z,100145.41
2023-04-14T21:22:22.570Z,100139.41
2023-04-14T21:24:49.577Z,100149.81
2023-04-14T21:27:17.465Z,100146.97
2023-04-14T21:29:44.643Z,100148.97
2023-04-14T21:32:11.950Z,100149.38
2023-04-14T21:34:38.465Z,100151.72
2023-04-14T21:37:04.914Z,100152.13
2023-04-14T21:39:33.219Z,100154.50
2023-04-14T21:42:02.044Z,100155.28
2023-04-14T21:44:28.593Z,100154.44
2023-04-14T21:46:55.700Z,100162.41
2023-04-14T21:49:22.492Z,100159.59
2023-04-14T21:51:52.514Z,100159.97
2023-04-14T21:54:19.528Z,100154.72
2023-04-14T21:56:46.194Z,100162.31
2023-04-14T21:59:12.571Z,100162.69
2023-04-14T22:01:39.792Z,100171.44
2023-04-14T22:04:06.585Z,100163.81
2023-04-14T22:06:35.227Z,100176.19
2023-04-14T22:09:01.841Z,100167.34
2023-04-14T22:11:30.731Z,100162.94
2023-04-14T22:13:58.256Z,100160.03
2023-04-14T22:16:25.426Z,100158.38
2023-04-14T22:18:52.062Z,100158.75
2023-04-14T22:21:18.536Z,100154.25
2023-04-14T22:23:45.210Z,100152.25
2023-04-14T22:26:12.778Z,100159.41
2023-04-14T22:28:39.914Z,100156.59
2023-04-14T22:31:06.830Z,100161.75
2023-04-14T22:33:33.491Z,100160.53
2023-04-14T22:36:05.698Z,100163.66
2023-04-14T22:38:33.717Z,100159.22
2023-04-14T22:41:01.581Z,100166.41
2023-04-14T22:43:29.751Z,100167.97
2023-04-14T22:45:56.740Z,100169.56
2023-04-14T22:48:23.355Z,100165.50
2023-04-14T22:50:49.928Z,100167.09
2023-04-14T22:53:16.290Z,100163.03
2023-04-14T22:55:43.296Z,100162.63
2023-04-14T22:58:16.141Z,100163.00
2023-04-14T23:00:44.196Z,100168.97
2023-04-14T23:03:11.599Z,100166.97
2023-04-14T23:05:39.116Z,100168.50
2023-04-14T23:08:05.864Z,100170.06
2023-04-14T23:10:32.485Z,100172.03
2023-04-14T23:12:59.144Z,100174.38
2023-04-14T23:15:25.941Z,100174.31
2023-04-14T23:17:52.299Z,100174.28
2023-04-14T23:20:19.303Z,100172.25
2023-04-14T23:22:46.143Z,100174.97
2023-04-14T23:25:12.758Z,100171.72
2023-04-14T23:27:39.284Z,100175.63
2023-04-14T23:30:06.667Z,100177.56
2023-04-14T23:32:33.106Z,100184.75
2023-04-14T23:34:59.763Z,100188.28
2023-04-14T23:37:26.146Z,100180.28
2023-04-14T23:39:52.523Z,100179.41
2023-04-14T23:42:18.852Z,100183.78
2023-04-14T23:44:45.508Z,100188.13
2023-04-14T23:47:12.151Z,100184.09
2023-04-14T23:49:38.877Z,100188.34
2023-04-14T23:52:05.782Z,100184.31
2023-04-14T23:54:32.612Z,100182.66
2023-04-14T23:56:58.939Z,100184.19
2023-04-14T23:59:25.326Z,100180.53
